createdAt,value
2023-05-28T00:01:33.672Z,44.44
2023-05-28T00:04:36.288Z,44.31
2023-05-28T00:07:40.538Z,44.12
2023-05-28T00:10:43.570Z,44.31
2023-05-28T00:13:45.952Z,44.66
2023-05-28T00:16:48.479Z,44.76
2023-05-28T00:19:51.008Z,42.89
2023-05-28T00:22:53.895Z,43.71
2023-05-28T00:25:56.388Z,44.10
2023-05-28T00:28:58.865Z,43.62
2023-05-28T00:32:01.239Z,43.06
2023-05-28T00:35:04.066Z,43.70
2023-05-28T00:38:06.450Z,43.34
2023-05-28T00:41:08.874Z,43.58
2023-05-28T00:44:11.273Z,43.56
2023-05-28T00:47:14.881Z,43.03
2023-05-28T00:50:18.265Z,42.99
2023-05-28T00:53:20.998Z,42.60
2023-05-28T00:56:27.742Z,43.25
2023-05-28T00:59:31.446Z,41.81
2023-05-28T01:02:33.853Z,41.64
2023-05-28T01:05:36.635Z,41.87
2023-05-28T01:08:39.653Z,41.70
2023-05-28T01:11:43.661Z,41.58
2023-05-28T01:14:49.350Z,41.63
2023-05-28T01:17:53.686Z,41.99
2023-05-28T01:20:56.581Z,42.18
2023-05-28T01:24:00.229Z,41.13
2023-05-28T01:27:03.542Z,42.22
2023-05-28T01:30:10.640Z,42.36
2023-05-28T01:33:13.925Z,40.90
2023-05-28T01:36:23.182Z,42.03
2023-05-28T01:39:28.714Z,41.92
2023-05-28T01:42:32.191Z,42.23
2023-05-28T01:45:34.759Z,42.51
2023-05-28T01:48:37.779Z,41.52
2023-05-28T01:51:40.134Z,42.52
2023-05-28T01:54:42.512Z,43.23
2023-05-28T01:57:44.971Z,42.70
2023-05-28T02:00:55.127Z,43.41
2023-05-28T02:03:58.459Z,43.16
2023-05-28T02:07:01.061Z,43.28
2023-05-28T02:10:04.085Z,43.01
2023-05-28T02:13:06.596Z,43.67
2023-05-28T02:16:09.303Z,43.95
2023-05-28T02:19:12.373Z,43.58
2023-05-28T02:22:14.748Z,43.95
2023-05-28T02:25:17.070Z,43.51
2023-05-28T02:28:19.418Z,43.98
2023-05-28T02:31:21.786Z,44.37
2023-05-28T02:34:24.169Z,44.94
2023-05-28T02:37:26.592Z,44.58
2023-05-28T02:40:28.899Z,44.42
2023-05-28T02:43:31.324Z,44.40
2023-05-28T02:46:33.865Z,44.56
2023-05-28T02:49:36.236Z,44.50
2023-05-28T02:52:38.560Z,45.60
2023-05-28T02:55:41.710Z,45.49
2023-05-28T02:58:44.060Z,45.55
2023-05-28T03:01:46.678Z,45.99
2023-05-28T03:04:50.099Z,46.17
2023-05-28T03:07:53.436Z,46.58
2023-05-28T03:10:55.860Z,45.62
2023-05-28T03:13:58.186Z,46.45
2023-05-28T03:17:01.069Z,46.74
2023-05-28T03:20:04.519Z,46.54
2023-05-28T03:23:06.922Z,46.44
2023-05-28T03:26:19.125Z,47.20
2023-05-28T03:29:21.407Z,46.68
2023-05-28T03:32:30.385Z,46.94
2023-05-28T03:35:32.763Z,46.74
2023-05-28T03:38:35.038Z,47.36
2023-05-28T03:41:38.066Z,46.33
2023-05-28T03:44:41.253Z,47.56
2023-05-28T03:47:44.325Z,47.71
2023-05-28T03:50:47.305Z,48.18
2023-05-28T03:53:49.730Z,47.54
2023-05-28T03:56:52.550Z,48.84
2023-05-28T03:59:58.032Z,47.47
2023-05-28T04:03:00.404Z,48.02
2023-05-28T04:06:03.899Z,47.69
2023-05-28T04:09:06.259Z,48.75
2023-05-28T04:12:09.863Z,46.68
2023-05-28T04:15:13.656Z,46.51
2023-05-28T04:18:16.179Z,46.80
2023-05-28T04:21:19.898Z,48.62
2023-05-28T04:24:22.263Z,48.88
2023-05-28T04:27:24.685Z,48.56
2023-05-28T04:30:28.933Z,48.45
2023-05-28T04:33:31.918Z,46.33
2023-05-28T04:36:37.974Z,45.15
2023-05-28T04:39:40.402Z,45.30
2023-05-28T04:42:44.239Z,44.84
2023-05-28T04:45:47.329Z,48.61
2023-05-28T04:48:50.144Z,46.31
2023-05-28T04:51:53.882Z,44.73
2023-05-28T04:54:57.604Z,44.72
2023-05-28T04:57:59.915Z,45.58
2023-05-28T05:01:03.746Z,45.13
2023-05-28T05:04:07.086Z,43.99
2023-05-28T05:07:09.622Z,44.33
2023-05-28T05:10:12.024Z,43.11
2023-05-28T05:13:14.357Z,44.78
2023-05-28T05:16:20.274Z,43.06
2023-05-28T05:19:22.595Z,42.76
2023-05-28T05:22:25.324Z,42.38
2023-05-28T05:25:27.685Z,41.89
2023-05-28T05:28:31.557Z,42.10
2023-05-28T05:31:36.591Z,42.85
2023-05-28T05:34:40.379Z,41.33
2023-05-28T05:38:01.257Z,42.64
2023-05-28T05:41:23.582Z,42.04
2023-05-28T05:44:30.542Z,41.88
2023-05-28T05:47:34.502Z,40.95
2023-05-28T05:50:51.033Z,40.28
2023-05-28T05:53:53.331Z,40.88
2023-05-28T05:56:55.730Z,39.72
2023-05-28T05:59:58.735Z,39.53
2023-05-28T06:03:02.474Z,41.13
2023-05-28T06:06:23.500Z,39.77
2023-05-28T06:09:44.753Z,38.98
2023-05-28T06:12:53.753Z,38.05
2023-05-28T06:15:56.128Z,38.43
2023-05-28T06:18:58.515Z,37.50
2023-05-28T06:22:00.849Z,38.21
2023-05-28T06:25:04.409Z,37.59
2023-05-28T06:28:07.519Z,36.36
2023-05-28T06:31:09.807Z,37.55
2023-05-28T06:34:12.099Z,36.53
2023-05-28T06:37:14.430Z,36.24
2023-05-28T06:40:17.746Z,35.80
2023-05-28T06:43:20.088Z,36.03
2023-05-28T06:46:45.264Z,36.20
2023-05-28T06:49:49.316Z,35.56
2023-05-28T06:52:51.672Z,35.41
2023-05-28T06:55:54.221Z,35.67
2023-05-28T06:59:14.886Z,35.18
2023-05-28T07:02:31.235Z,34.36
2023-05-28T07:05:48.488Z,34.33
2023-05-28T07:08:50.992Z,35.67
2023-05-28T07:11:53.368Z,33.85
2023-05-28T07:14:56.399Z,33.70
2023-05-28T07:17:58.883Z,33.64
2023-05-28T07:21:01.527Z,33.49
2023-05-28T07:24:11.179Z,33.43
2023-05-28T07:27:13.474Z,33.77
2023-05-28T07:30:15.909Z,33.50
2023-05-28T07:33:18.306Z,32.64
2023-05-28T07:36:21.857Z,32.45
2023-05-28T07:39:24.398Z,33.91
2023-05-28T07:42:27.076Z,31.86
2023-05-28T07:45:37.597Z,33.14
2023-05-28T07:48:40.943Z,33.52
2023-05-28T07:52:02.329Z,33.75
2023-05-28T07:55:08.584Z,34.33
2023-05-28T07:58:13.076Z,33.61
2023-05-28T08:01:16.271Z,35.10
2023-05-28T08:04:18.692Z,32.26
2023-05-28T08:07:21.129Z,31.34
2023-05-28T08:10:23.514Z,32.05
2023-05-28T08:13:26.458Z,30.91
2023-05-28T08:16:28.793Z,30.83
2023-05-28T08:23:35.950Z,32.42
2023-05-28T08:26:42.310Z,30.93
2023-05-28T08:29:44.919Z,30.29
2023-05-28T08:32:47.278Z,31.11
2023-05-28T08:35:50.289Z,30.88
2023-05-28T08:38:53.134Z,30.17
2023-05-28T08:41:56.886Z,30.73
2023-05-28T08:44:59.286Z,32.07
2023-05-28T08:48:08.045Z,31.10
2023-05-28T08:51:14.521Z,29.80
2023-05-28T08:54:19.562Z,29.91
2023-05-28T08:57:22.289Z,31.13
2023-05-28T09:00:33.122Z,30.42
2023-05-28T09:03:55.512Z,31.38
2023-05-28T09:07:07.025Z,29.02
2023-05-28T09:10:16.594Z,29.21
2023-05-28T09:13:21.770Z,30.45
2023-05-28T09:16:25.676Z,29.74
2023-05-28T09:19:36.187Z,28.18
2023-05-28T09:22:41.514Z,29.19
2023-05-28T09:26:01.678Z,29.11
2023-05-28T09:29:14.150Z,29.20
2023-05-28T09:32:22.040Z,29.03
2023-05-28T09:35:28.019Z,28.57
2023-05-28T09:38:40.847Z,29.32
2023-05-28T09:41:45.626Z,28.61
2023-05-28T09:44:48.989Z,28.65
2023-05-28T09:47:51.509Z,27.96
2023-05-28T09:50:54.257Z,27.64
2023-05-28T09:53:59.063Z,27.40
2023-05-28T09:57:04.078Z,27.48
2023-05-28T10:00:14.827Z,27.02
2023-05-28T10:03:45.522Z,27.26
2023-05-28T10:06:47.930Z,28.14
2023-05-28T10:09:51.752Z,28.37
2023-05-28T10:12:54.721Z,27.52
2023-05-28T10:15:57.489Z,27.25
2023-05-28T10:19:01.030Z,27.44
2023-05-28T10:22:03.761Z,28.71
2023-05-28T10:25:09.019Z,28.01
2023-05-28T10:28:15.688Z,27.66
2023-05-28T10:31:22.668Z,27.69
2023-05-28T10:34:31.189Z,27.59
2023-05-28T10:37:33.706Z,28.59
2023-05-28T10:40:36.457Z,25.99
2023-05-28T10:43:38.772Z,26.54
2023-05-28T10:46:41.611Z,26.98
2023-05-28T10:50:18.536Z,27.47
2023-05-28T10:53:21.906Z,26.68
2023-05-28T10:56:26.601Z,26.40
2023-05-28T10:59:47.293Z,27.62
2023-05-28T11:02:53.102Z,27.95
2023-05-28T11:05:55.688Z,26.77
2023-05-28T11:08:58.271Z,27.60
2023-05-28T11:12:02.902Z,27.26
2023-05-28T11:15:06.493Z,26.79
2023-05-28T11:18:09.164Z,27.96
2023-05-28T11:21:12.810Z,28.37
2023-05-28T11:24:15.122Z,26.66
2023-05-28T11:27:18.140Z,28.19
2023-05-28T11:30:20.849Z,25.89
2023-05-28T11:33:23.186Z,28.03
2023-05-28T11:36:25.909Z,27.33
2023-05-28T11:39:28.237Z,26.48
2023-05-28T11:42:34.397Z,26.90
2023-05-28T11:45:40.757Z,26.29
2023-05-28T11:48:43.153Z,26.84
2023-05-28T11:51:45.437Z,26.90
2023-05-28T11:54:50.166Z,26.89
2023-05-28T11:57:56.536Z,27.28
2023-05-28T12:00:58.916Z,27.00
2023-05-28T12:04:08.366Z,26.28
2023-05-28T12:07:12.533Z,25.72
2023-05-28T12:10:18.176Z,27.01
2023-05-28T12:13:20.737Z,25.14
2023-05-28T12:16:23.177Z,25.91
2023-05-28T12:19:33.060Z,26.48
2023-05-28T12:22:35.396Z,25.64
2023-05-28T12:25:47.219Z,24.83
2023-05-28T12:28:49.525Z,25.22
2023-05-28T12:31:59.346Z,25.99
2023-05-28T12:35:03.279Z,25.76
2023-05-28T12:38:06.057Z,25.40
2023-05-28T12:41:08.594Z,25.73
2023-05-28T12:44:10.916Z,25.71
2023-05-28T12:47:13.364Z,27.80
2023-05-28T12:50:15.782Z,26.04
2023-05-28T12:53:18.545Z,26.16
2023-05-28T12:56:20.889Z,26.07
2023-05-28T12:59:27.926Z,24.76
2023-05-28T13:02:30.312Z,25.32
2023-05-28T13:05:34.193Z,27.88
2023-05-28T13:08:36.633Z,28.57
2023-05-28T13:11:40.567Z,25.95
2023-05-28T13:14:42.876Z,26.87
2023-05-28T13:17:45.817Z,27.23
2023-05-28T13:20:48.216Z,26.27
2023-05-28T13:23:50.652Z,25.85
2023-05-28T13:26:52.942Z,25.59
2023-05-28T13:29:55.460Z,24.75
2023-05-28T13:32:57.927Z,25.19
2023-05-28T13:36:00.354Z,25.86
2023-05-28T13:39:02.745Z,25.43
2023-05-28T13:42:05.244Z,25.35
2023-05-28T13:45:08.636Z,24.99
2023-05-28T13:48:11.011Z,24.14
2023-05-28T13:51:13.344Z,25.33
2023-05-28T13:54:16.329Z,24.87
2023-05-28T13:57:21.276Z,26.14
2023-05-28T14:00:38.078Z,25.04
2023-05-28T14:03:46.496Z,24.58
2023-05-28T14:06:51.711Z,25.13
2023-05-28T14:09:54.040Z,24.90
2023-05-28T14:12:56.421Z,24.36
2023-05-28T14:16:01.942Z,25.37
2023-05-28T14:19:04.228Z,25.20
2023-05-28T14:22:06.504Z,23.24
2023-05-28T14:25:09.338Z,24.11
2023-05-28T14:28:12.603Z,25.07
2023-05-28T14:31:15.133Z,24.62
2023-05-28T14:34:17.470Z,25.57
2023-05-28T14:37:20.098Z,25.08
2023-05-28T14:40:22.484Z,25.44
2023-05-28T14:43:24.786Z,24.32
2023-05-28T14:46:27.329Z,24.91
2023-05-28T14:49:29.723Z,24.60
2023-05-28T14:52:32.206Z,25.05
2023-05-28T14:55:34.782Z,24.02
2023-05-28T14:58:37.345Z,24.78
2023-05-28T15:01:39.822Z,23.46
2023-05-28T15:04:45.258Z,24.28
2023-05-28T15:07:48.314Z,25.41
2023-05-28T15:10:50.707Z,25.93
2023-05-28T15:13:55.300Z,25.31
2023-05-28T15:16:58.751Z,25.35
2023-05-28T15:20:01.247Z,25.73
2023-05-28T15:23:03.698Z,25.08
2023-05-28T15:26:06.111Z,25.67
2023-05-28T15:29:08.631Z,25.04
2023-05-28T15:32:12.401Z,26.50
2023-05-28T15:35:15.606Z,26.14
2023-05-28T15:38:18.272Z,26.78
2023-05-28T15:41:21.347Z,25.05
2023-05-28T15:44:23.895Z,25.23
2023-05-28T15:47:26.464Z,24.84
2023-05-28T15:50:28.967Z,25.64
2023-05-28T15:53:32.823Z,26.12
2023-05-28T15:56:35.234Z,25.73
2023-05-28T15:59:43.134Z,25.41
2023-05-28T16:02:46.049Z,25.42
2023-05-28T16:05:48.793Z,23.92
2023-05-28T16:08:51.179Z,25.46
2023-05-28T16:11:56.312Z,24.65
2023-05-28T16:14:59.115Z,23.89
2023-05-28T16:18:04.625Z,23.19
2023-05-28T16:21:07.832Z,23.19
2023-05-28T16:24:10.318Z,23.65
2023-05-28T16:27:12.688Z,24.18
2023-05-28T16:30:17.082Z,24.59
2023-05-28T16:33:19.947Z,26.52
2023-05-28T16:36:23.056Z,26.34
2023-05-28T16:39:25.995Z,27.83
2023-05-28T16:42:28.567Z,26.89
2023-05-28T16:45:31.235Z,27.97
2023-05-28T16:48:34.743Z,28.84
2023-05-28T16:51:38.006Z,28.86
2023-05-28T16:54:41.964Z,28.21
2023-05-28T16:57:44.327Z,28.97
2023-05-28T17:00:46.783Z,29.48
2023-05-28T17:03:49.256Z,29.81
2023-05-28T17:06:57.774Z,30.48
2023-05-28T17:10:00.097Z,30.31
2023-05-28T17:13:02.458Z,30.88
2023-05-28T17:16:04.968Z,30.38
2023-05-28T17:19:07.397Z,31.42
2023-05-28T17:22:09.660Z,30.80
2023-05-28T17:25:12.063Z,31.15
2023-05-28T17:28:14.827Z,31.46
2023-05-28T17:31:17.138Z,32.03
2023-05-28T17:34:19.495Z,32.78
2023-05-28T17:37:22.277Z,32.96
2023-05-28T17:40:24.622Z,32.90
2023-05-28T17:43:28.801Z,32.87
2023-05-28T17:46:32.558Z,33.49
2023-05-28T17:49:37.185Z,34.14
2023-05-28T17:52:39.506Z,33.96
2023-05-28T17:55:41.800Z,33.76
2023-05-28T17:58:44.405Z,34.24
2023-05-28T18:01:47.166Z,35.18
2023-05-28T18:04:49.657Z,35.21
2023-05-28T18:07:52.022Z,35.64
2023-05-28T18:10:57.746Z,35.92
2023-05-28T18:14:00.464Z,35.68
2023-05-28T18:17:02.780Z,35.90
2023-05-28T18:20:07.203Z,36.17
2023-05-28T18:23:11.239Z,36.38
2023-05-28T18:26:13.765Z,36.90
2023-05-28T18:29:16.304Z,36.76
2023-05-28T18:32:18.617Z,36.82
2023-05-28T18:35:21.300Z,37.48
2023-05-28T18:38:23.611Z,37.94
2023-05-28T18:41:26.366Z,38.35
2023-05-28T18:44:28.784Z,37.31
2023-05-28T18:47:31.553Z,38.31
2023-05-28T18:50:34.156Z,38.62
2023-05-28T18:53:36.919Z,38.79
2023-05-28T18:56:39.716Z,38.98
2023-05-28T18:59:42.438Z,39.67
2023-05-28T19:02:45.097Z,40.04
2023-05-28T19:05:47.585Z,40.51
2023-05-28T19:08:50.056Z,40.39
2023-05-28T19:11:52.490Z,40.98
2023-05-28T19:14:56.675Z,40.65
2023-05-28T19:17:59.001Z,41.17
2023-05-28T19:21:01.630Z,41.27
2023-05-28T19:24:04.185Z,41.26
2023-05-28T19:27:08.289Z,41.44
2023-05-28T19:30:11.097Z,42.47
2023-05-28T19:33:13.475Z,42.61
2023-05-28T19:36:17.387Z,43.31
2023-05-28T19:39:19.783Z,43.86
2023-05-28T19:42:22.047Z,44.31
2023-05-28T19:45:24.393Z,44.59
2023-05-28T19:48:27.600Z,45.12
2023-05-28T19:51:29.903Z,43.62
2023-05-28T19:54:32.304Z,44.25
2023-05-28T19:57:34.619Z,45.01
2023-05-28T20:00:37.395Z,44.47
2023-05-28T20:03:39.724Z,44.79
2023-05-28T20:06:43.002Z,44.84
2023-05-28T20:09:46.241Z,44.93
2023-05-28T20:12:48.590Z,45.27
2023-05-28T20:15:53.414Z,45.98
2023-05-28T20:18:58.216Z,45.93
2023-05-28T20:22:02.196Z,45.35
2023-05-28T20:25:05.658Z,44.70
2023-05-28T20:28:07.999Z,44.83
2023-05-28T20:31:10.413Z,45.21
2023-05-28T20:34:14.828Z,45.10
2023-05-28T20:37:17.900Z,45.30
2023-05-28T20:40:20.267Z,45.22
2023-05-28T20:43:22.806Z,45.72
2023-05-28T20:46:25.163Z,45.87
2023-05-28T20:49:27.540Z,45.63
2023-05-28T20:52:29.840Z,46.36
2023-05-28T20:55:32.101Z,46.49
2023-05-28T20:58:34.912Z,46.98
2023-05-28T21:01:38.523Z,47.23
2023-05-28T21:04:40.999Z,47.21
2023-05-28T21:07:43.389Z,47.05
2023-05-28T21:10:46.891Z,46.00
2023-05-28T21:13:49.206Z,46.14
2023-05-28T21:16:51.941Z,46.84
2023-05-28T21:19:54.269Z,46.81
2023-05-28T21:22:56.562Z,46.06
2023-05-28T21:25:59.657Z,44.82
2023-05-28T21:29:01.975Z,42.62
2023-05-28T21:32:04.433Z,42.84
2023-05-28T21:35:07.368Z,42.10
2023-05-28T21:38:09.750Z,42.04
2023-05-28T21:41:12.087Z,42.08
2023-05-28T21:44:14.566Z,42.30
2023-05-28T21:47:16.834Z,42.38
2023-05-28T21:50:19.114Z,41.97
2023-05-28T21:53:21.654Z,42.31
2023-05-28T21:56:23.959Z,42.22
2023-05-28T21:59:26.389Z,42.27
2023-05-28T22:02:28.796Z,43.09
2023-05-28T22:05:31.276Z,43.17
2023-05-28T22:08:33.777Z,43.63
2023-05-28T22:11:36.331Z,44.09
2023-05-28T22:14:39.225Z,44.86
2023-05-28T22:17:45.994Z,44.57
2023-05-28T22:20:50.819Z,44.51
2023-05-28T22:23:53.168Z,44.49
2023-05-28T22:26:55.906Z,44.25
2023-05-28T22:29:58.264Z,45.21
2023-05-28T22:33:01.292Z,45.34
2023-05-28T22:36:03.921Z,44.53
2023-05-28T22:39:06.390Z,44.81
2023-05-28T22:42:09.592Z,43.87
2023-05-28T22:45:16.972Z,44.00
2023-05-28T22:48:20.594Z,43.52
2023-05-28T22:51:24.279Z,43.85
2023-05-28T22:54:26.870Z,43.85
2023-05-28T22:57:29.189Z,43.40
2023-05-28T23:00:31.596Z,43.72
2023-05-28T23:03:34.193Z,43.05
2023-05-28T23:06:40.393Z,43.32
2023-05-28T23:09:42.641Z,43.85
2023-05-28T23:12:45.071Z,44.21
2023-05-28T23:15:47.378Z,43.86
2023-05-28T23:18:51.167Z,44.51
2023-05-28T23:21:53.573Z,44.57
2023-05-28T23:24:56.392Z,44.36
2023-05-28T23:27:58.687Z,44.40
2023-05-28T23:31:01.116Z,44.96
2023-05-28T23:34:03.547Z,44.74
2023-05-28T23:37:06.383Z,44.54
2023-05-28T23:40:09.195Z,44.55
2023-05-28T23:43:11.635Z,44.10
2023-05-28T23:46:13.940Z,44.72
2023-05-28T23:49:18.467Z,44.71
2023-05-28T23:52:20.795Z,44.68
2023-05-28T23:55:23.395Z,45.08
2023-05-28T23:58:26.278Z,45.04
